createdAt,value
2019-05-16T00:01:09.412Z,102166.61
2019-05-16T00:03:38.896Z,102167.05
2019-05-16T00:06:08.634Z,102165.14
2019-05-16T00:08:38.796Z,102165.77
2019-05-16T00:11:08.673Z,102163.05
2019-05-16T00:13:38.449Z,102167.32
2019-05-16T00:16:08.134Z,102163.73
2019-05-16T00:18:38.789Z,102161.82
2019-05-16T00:21:08.820Z,102165.14
2019-05-16T00:23:38.976Z,102175.84
2019-05-16T00:26:08.363Z,102170.91
2019-05-16T00:28:38.091Z,102165.05
2019-05-16T00:31:08.670Z,102169.30
2019-05-16T00:33:38.351Z,102166.91
2019-05-16T00:36:09.262Z,102174.18
2019-05-16T00:38:39.170Z,102168.45
2019-05-16T00:41:08.669Z,102172.56
2019-05-16T00:43:38.050Z,102169.20
2019-05-16T00:46:08.251Z,102166.80
2019-05-16T00:48:38.244Z,102169.23
2019-05-16T00:51:08.012Z,102160.97
2019-05-16T00:53:38.313Z,102157.11
2019-05-16T00:56:08.082Z,102158.70
2019-05-16T00:58:38.864Z,102155.94
2019-05-16T01:01:08.700Z,102155.75
2019-05-16T01:03:38.170Z,102158.80
2019-05-16T01:06:16.614Z,102155.56
2019-05-16T01:08:38.741Z,102148.98
2019-05-16T01:11:08.131Z,102154.91
2019-05-16T01:13:38.049Z,102152.28
2019-05-16T01:16:08.573Z,102158.02
2019-05-16T01:18:38.428Z,102160.36
2019-05-16T01:21:07.987Z,102164.73
2019-05-16T01:23:38.824Z,102164.66
2019-05-16T01:26:09.726Z,102160.21
2019-05-16T01:28:39.108Z,102156.61
2019-05-16T01:31:08.802Z,102159.06
2019-05-16T01:33:38.645Z,102157.15
2019-05-16T01:36:09.013Z,102153.05
2019-05-16T01:38:39.175Z,102151.02
2019-05-16T01:41:08.872Z,102145.98
2019-05-16T01:43:38.345Z,102143.22
2019-05-16T01:46:08.391Z,102143.65
2019-05-16T01:48:38.273Z,102137.16
2019-05-16T01:51:07.909Z,102138.86
2019-05-16T01:53:39.421Z,102138.66
2019-05-16T01:56:08.700Z,102139.75
2019-05-16T01:58:38.309Z,102139.77
2019-05-16T02:01:13.305Z,102145.45
2019-05-16T02:03:38.965Z,102142.55
2019-05-16T02:06:08.826Z,102141.11
2019-05-16T02:08:38.362Z,102143.41
2019-05-16T02:11:08.559Z,102139.67
2019-05-16T02:13:39.095Z,102135.25
2019-05-16T02:16:08.721Z,102137.31
2019-05-16T02:18:38.366Z,102137.55
2019-05-16T02:21:08.000Z,102130.48
2019-05-16T02:23:38.179Z,102131.69
2019-05-16T02:26:08.098Z,102132.90
2019-05-16T02:28:40.785Z,102128.34
2019-05-16T02:31:14.738Z,102127.02
2019-05-16T02:33:42.053Z,102126.18
2019-05-16T02:36:11.440Z,102129.92
2019-05-16T02:38:42.294Z,102122.08
2019-05-16T02:41:12.266Z,102121.23
2019-05-16T02:43:42.295Z,102121.23
2019-05-16T02:46:12.309Z,102118.58
2019-05-16T02:48:42.322Z,102116.41
2019-05-16T02:51:11.689Z,102120.22
2019-05-16T02:53:41.783Z,102119.70
2019-05-16T02:56:12.298Z,102119.39
2019-05-16T02:58:44.807Z,102115.97
2019-05-16T03:01:13.366Z,102117.48
2019-05-16T03:03:44.062Z,102116.34
2019-05-16T03:06:15.184Z,102117.17
2019-05-16T03:08:46.369Z,102113.00
2019-05-16T03:11:16.001Z,102111.04
2019-05-16T03:13:51.125Z,102100.95
2019-05-16T03:16:22.352Z,102104.48
2019-05-16T03:18:54.231Z,102102.00
2019-05-16T03:21:26.491Z,102095.91
2019-05-16T03:23:56.077Z,102102.67
2019-05-16T03:26:26.016Z,102099.99
2019-05-16T03:28:55.407Z,102098.23
2019-05-16T03:31:27.559Z,102100.48
2019-05-16T03:34:01.390Z,102092.24
2019-05-16T03:36:33.990Z,102099.48
2019-05-16T03:39:01.293Z,102101.25
2019-05-16T03:41:30.960Z,102092.57
2019-05-16T03:44:06.380Z,102099.20
2019-05-16T03:46:35.983Z,102100.63
2019-05-16T03:49:05.361Z,102094.73
2019-05-16T03:51:35.158Z,102094.59
2019-05-16T03:54:04.623Z,102088.94
2019-05-16T03:56:37.158Z,102093.37
2019-05-16T03:59:06.606Z,102090.66
2019-05-16T04:01:36.301Z,102091.34
2019-05-16T04:04:05.770Z,102095.13
2019-05-16T04:06:35.776Z,102095.55
2019-05-16T04:09:06.951Z,102091.45
2019-05-16T04:11:36.797Z,102091.10
2019-05-16T04:14:06.584Z,102095.52
2019-05-16T04:16:36.134Z,102097.85
2019-05-16T04:19:05.756Z,102099.78
2019-05-16T04:21:37.039Z,102093.95
2019-05-16T04:24:06.434Z,102097.84
2019-05-16T04:26:36.254Z,102095.77
2019-05-16T04:29:05.759Z,102102.80
2019-05-16T04:31:35.378Z,102098.59
2019-05-16T04:34:05.023Z,102096.21
2019-05-16T04:36:34.421Z,102094.18
2019-05-16T04:39:05.993Z,102099.54
2019-05-16T04:41:35.386Z,102100.72
2019-05-16T04:44:05.152Z,102102.70
2019-05-16T04:46:34.713Z,102106.06
2019-05-16T04:49:04.190Z,102101.39
2019-05-16T04:51:33.837Z,102105.39
2019-05-16T04:54:06.778Z,102105.05
2019-05-16T04:56:34.929Z,102104.55
2019-05-16T04:59:04.384Z,102103.39
2019-05-16T05:01:33.812Z,102106.22
2019-05-16T05:04:10.589Z,102105.73
2019-05-16T05:06:34.863Z,102119.95
2019-05-16T05:09:05.590Z,102117.44
2019-05-16T05:11:35.654Z,102113.44
2019-05-16T05:14:10.417Z,102116.80
2019-05-16T05:16:41.309Z,102111.61
2019-05-16T05:19:11.056Z,102117.35
2019-05-16T05:21:41.270Z,102120.03
2019-05-16T05:24:10.972Z,102119.38
2019-05-16T05:26:41.348Z,102120.57
2019-05-16T05:29:11.012Z,102126.61
2019-05-16T05:31:56.418Z,102125.94
2019-05-16T05:34:25.947Z,102124.77
2019-05-16T05:36:55.521Z,102128.78
2019-05-16T05:39:25.127Z,102125.60
2019-05-16T05:41:54.721Z,102124.64
2019-05-16T05:44:24.173Z,102129.52
2019-05-16T05:46:53.563Z,102125.47
2019-05-16T05:49:22.955Z,102114.94
2019-05-16T05:51:52.340Z,102120.62
2019-05-16T05:54:22.626Z,102123.62
2019-05-16T05:56:53.092Z,102118.42
2019-05-16T05:59:22.495Z,102119.74
2019-05-16T06:01:52.064Z,102122.56
2019-05-16T06:04:21.453Z,102130.45
2019-05-16T06:06:52.472Z,102124.41
2019-05-16T06:09:28.494Z,102125.89
2019-05-16T06:11:53.020Z,102126.72
2019-05-16T06:14:22.412Z,102126.02
2019-05-16T06:16:51.917Z,102120.25
2019-05-16T06:19:21.344Z,102121.70
2019-05-16T06:21:50.905Z,102122.66
2019-05-16T06:24:21.413Z,102119.97
2019-05-16T06:26:50.964Z,102122.27
2019-05-16T06:29:20.579Z,102118.56
2019-05-16T06:31:50.037Z,102120.19
2019-05-16T06:34:20.974Z,102122.70
2019-05-16T06:36:51.061Z,102115.56
2019-05-16T06:39:20.592Z,102111.44
2019-05-16T06:41:50.971Z,102129.31
2019-05-16T06:44:20.715Z,102121.77
2019-05-16T06:47:08.775Z,102124.80
2019-05-16T06:49:21.477Z,102123.22
2019-05-16T06:51:51.497Z,102124.34
2019-05-16T06:54:21.062Z,102122.27
2019-05-16T06:56:51.207Z,102125.66
2019-05-16T06:59:20.561Z,102103.70
2019-05-16T07:01:50.179Z,102121.25
2019-05-16T07:04:20.131Z,102111.35
2019-05-16T07:06:58.528Z,102115.26
2019-05-16T07:09:21.007Z,102122.83
2019-05-16T07:11:50.589Z,102109.69
2019-05-16T07:14:22.810Z,102104.45
2019-05-16T07:16:51.491Z,102120.36
2019-05-16T07:19:21.073Z,102116.17
2019-05-16T07:21:50.953Z,102117.27
2019-05-16T07:24:20.393Z,102110.02
2019-05-16T07:26:50.748Z,102106.20
2019-05-16T07:29:20.369Z,102124.70
2019-05-16T07:31:52.663Z,102116.54
2019-05-16T07:34:22.076Z,102113.33
2019-05-16T07:36:51.756Z,102102.43
2019-05-16T07:39:21.251Z,102109.33
2019-05-16T07:41:50.986Z,102099.17
2019-05-16T07:44:23.288Z,102109.02
2019-05-16T07:46:52.690Z,102103.27
2019-05-16T07:49:22.145Z,102110.01
2019-05-16T07:51:57.039Z,102086.63
2019-05-16T07:54:26.573Z,102098.44
2019-05-16T07:57:07.945Z,102084.12
2019-05-16T07:59:27.345Z,102083.69
2019-05-16T08:01:56.980Z,102088.11
2019-05-16T08:04:26.358Z,102094.30
2019-05-16T08:06:55.849Z,102091.25
2019-05-16T08:09:25.471Z,102076.64
2019-05-16T08:11:55.098Z,102063.09
2019-05-16T08:14:24.468Z,102082.34
2019-05-16T08:16:53.987Z,102082.80
2019-05-16T08:19:25.362Z,102079.34
2019-05-16T08:21:55.009Z,102086.12
2019-05-16T08:24:25.011Z,102072.28
2019-05-16T08:26:54.404Z,102079.87
2019-05-16T08:29:23.868Z,102072.92
2019-05-16T08:31:53.309Z,102067.11
2019-05-16T08:34:22.683Z,102070.70
2019-05-16T08:36:52.123Z,102064.62
2019-05-16T08:39:21.646Z,102064.57
2019-05-16T08:41:52.144Z,102073.64
2019-05-16T08:44:21.866Z,102069.12
2019-05-16T08:49:22.643Z,102054.56
2019-05-16T08:51:53.129Z,102050.36
2019-05-16T08:54:22.848Z,102050.88
2019-05-16T08:56:52.242Z,102050.77
2019-05-16T08:59:21.766Z,102052.50
2019-05-16T09:01:57.564Z,102049.52
2019-05-16T09:06:53.548Z,102048.81
2019-05-16T09:09:39.838Z,102045.00
2019-05-16T09:10:41.403Z,102053.58
2019-05-16T09:10:41.640Z,102057.22
2019-05-16T09:11:56.934Z,102042.22
2019-05-16T09:14:27.630Z,102042.77
2019-05-16T09:16:58.147Z,102039.23
2019-05-16T09:19:28.860Z,102028.64
2019-05-16T09:21:58.538Z,102031.22
2019-05-16T09:24:28.798Z,102044.06
2019-05-16T09:26:58.367Z,102027.59
2019-05-16T09:29:27.858Z,102030.09
2019-05-16T09:32:09.151Z,102029.47
2019-05-16T09:34:28.603Z,102029.58
2019-05-16T09:37:01.218Z,102037.59
2019-05-16T09:39:29.568Z,102041.22
2019-05-16T09:41:59.026Z,102020.61
2019-05-16T09:44:28.371Z,102025.73
2019-05-16T09:46:57.880Z,102011.59
2019-05-16T09:49:29.265Z,102017.63
2019-05-16T09:52:02.319Z,102005.45
2019-05-16T09:54:31.935Z,102007.75
2019-05-16T09:57:01.438Z,102005.44
2019-05-16T09:59:33.995Z,102003.16
2019-05-16T10:02:07.343Z,101994.87
2019-05-16T10:04:37.326Z,101998.60
2019-05-16T10:07:06.850Z,101998.78
2019-05-16T10:09:42.002Z,101999.00
2019-05-16T10:12:15.000Z,101995.14
2019-05-16T10:14:38.643Z,101998.14
2019-05-16T10:17:08.418Z,101991.78
2019-05-16T10:19:37.893Z,102000.95
2019-05-16T10:22:07.692Z,101991.05
2019-05-16T10:24:37.909Z,101999.28
2019-05-16T10:27:07.362Z,101998.52
2019-05-16T10:29:37.760Z,101987.13
2019-05-16T10:32:07.793Z,101980.82
2019-05-16T10:34:37.196Z,101978.88
2019-05-16T10:37:06.603Z,101976.48
2019-05-16T10:39:37.383Z,101967.88
2019-05-16T10:42:06.977Z,101973.09
2019-05-16T10:44:38.378Z,101977.27
2019-05-16T10:47:07.772Z,101976.23
2019-05-16T10:49:40.932Z,101982.01
2019-05-16T10:52:08.315Z,101968.52
2019-05-16T10:54:46.468Z,101970.75
2019-05-16T10:57:08.955Z,101966.13
2019-05-16T10:59:57.802Z,101962.14
2019-05-16T11:02:09.511Z,101960.30
2019-05-16T11:04:53.922Z,101949.64
2019-05-16T11:07:09.947Z,101950.42
2019-05-16T11:09:43.496Z,101940.55
2019-05-16T11:12:10.535Z,101937.56
2019-05-16T11:14:47.825Z,101935.81
2019-05-16T11:17:18.978Z,101950.73
2019-05-16T11:19:47.755Z,101960.88
2019-05-16T11:22:17.178Z,101952.93
2019-05-16T11:24:47.208Z,101952.09
2019-05-16T11:27:16.651Z,101950.73
2019-05-16T11:29:47.274Z,101949.91
2019-05-16T11:32:16.735Z,101944.45
2019-05-16T11:34:47.992Z,101942.81
2019-05-16T11:37:17.774Z,101952.50
2019-05-16T11:39:47.271Z,101935.30
2019-05-16T11:42:17.503Z,101935.48
2019-05-16T11:44:47.842Z,101922.68
2019-05-16T11:47:17.378Z,101935.33
2019-05-16T11:49:47.588Z,101929.09
2019-05-16T11:52:18.091Z,101917.99
2019-05-16T11:54:47.682Z,101909.33
2019-05-16T11:57:17.933Z,101917.69
2019-05-16T11:59:47.485Z,101904.37
2019-05-16T12:02:17.529Z,101905.88
2019-05-16T12:04:47.459Z,101913.89
2019-05-16T12:07:18.979Z,101909.11
2019-05-16T12:09:55.214Z,101897.21
2019-05-16T12:12:20.954Z,101895.70
2019-05-16T12:14:50.475Z,101890.61
2019-05-16T12:17:19.894Z,101896.00
2019-05-16T12:19:52.792Z,101889.58
2019-05-16T12:22:22.465Z,101894.78
2019-05-16T12:24:52.678Z,101882.55
2019-05-16T12:27:22.117Z,101890.12
2019-05-16T12:29:55.522Z,101891.67
2019-05-16T12:32:22.825Z,101891.14
2019-05-16T12:34:52.218Z,101887.39
2019-05-16T12:37:21.659Z,101892.08
2019-05-16T12:39:51.171Z,101875.79
2019-05-16T12:42:20.548Z,101896.10
2019-05-16T12:44:49.943Z,101878.15
2019-05-16T12:47:19.398Z,101881.52
2019-05-16T12:49:48.800Z,101879.77
2019-05-16T12:52:18.190Z,101881.60
2019-05-16T12:54:47.689Z,101882.22
2019-05-16T12:57:18.183Z,101872.23
2019-05-16T12:59:50.148Z,101870.13
2019-05-16T13:02:21.776Z,101865.16
2019-05-16T13:04:50.778Z,101859.73
2019-05-16T13:07:20.164Z,101855.88
2019-05-16T13:09:50.189Z,101856.70
2019-05-16T13:12:19.797Z,101862.83
2019-05-16T13:14:49.764Z,101855.27
2019-05-16T13:17:19.392Z,101858.45
2019-05-16T13:19:52.104Z,101868.84
2019-05-16T13:22:21.466Z,101853.47
2019-05-16T13:24:50.884Z,101846.59
2019-05-16T13:27:23.223Z,101850.22
2019-05-16T13:29:51.926Z,101828.88
2019-05-16T13:32:21.331Z,101853.99
2019-05-16T13:34:50.701Z,101851.66
2019-05-16T13:37:20.132Z,101841.10
2019-05-16T13:39:50.258Z,101847.59
2019-05-16T13:42:19.636Z,101847.89
2019-05-16T13:44:49.009Z,101850.30
2019-05-16T13:47:18.412Z,101843.64
2019-05-16T13:49:47.807Z,101848.48
2019-05-16T13:52:17.168Z,101842.83
2019-05-16T13:54:46.603Z,101845.07
2019-05-16T13:57:17.206Z,101838.67
2019-05-16T13:59:46.801Z,101837.77
2019-05-16T14:02:17.410Z,101830.20
2019-05-16T14:04:47.482Z,101830.78
2019-05-16T14:07:17.246Z,101821.89
2019-05-16T14:09:47.297Z,101844.21
2019-05-16T14:12:17.787Z,101845.02
2019-05-16T14:14:47.957Z,101841.77
2019-05-16T14:17:17.854Z,101833.72
2019-05-16T14:19:48.291Z,101821.72
2019-05-16T14:22:17.802Z,101819.17
2019-05-16T14:24:48.125Z,101815.16
2019-05-16T14:27:17.792Z,101821.28
2019-05-16T14:29:48.651Z,101802.27
2019-05-16T14:32:19.669Z,101809.45
2019-05-16T14:34:51.653Z,101807.63
2019-05-16T14:37:20.403Z,101805.82
2019-05-16T14:39:49.836Z,101792.11
2019-05-16T14:42:19.235Z,101797.84
2019-05-16T14:45:03.519Z,101795.43
2019-05-16T14:47:19.845Z,101785.91
2019-05-16T14:49:49.284Z,101774.30
2019-05-16T14:52:18.640Z,101777.98
2019-05-16T14:54:48.199Z,101784.91
2019-05-16T14:57:18.258Z,101787.79
2019-05-16T14:59:47.723Z,101780.62
2019-05-16T15:02:18.249Z,101777.02
2019-05-16T15:04:49.594Z,101775.52
2019-05-16T15:07:19.659Z,101771.89
2019-05-16T15:09:49.043Z,101771.14
2019-05-16T15:12:18.472Z,101769.92
2019-05-16T15:14:47.872Z,101768.20
2019-05-16T15:17:19.715Z,101769.11
2019-05-16T15:19:49.088Z,101772.37
2019-05-16T15:22:18.648Z,101767.85
2019-05-16T15:24:48.053Z,101774.00
2019-05-16T15:27:17.647Z,101765.08
2019-05-16T15:29:50.645Z,101774.05
2019-05-16T15:32:18.603Z,101769.80
2019-05-16T15:34:48.059Z,101759.77
2019-05-16T15:37:17.802Z,101754.33
2019-05-16T15:39:47.694Z,101764.69
2019-05-16T15:42:18.064Z,101757.95
2019-05-16T15:44:47.601Z,101763.27
2019-05-16T15:47:17.709Z,101753.66
2019-05-16T15:49:47.699Z,101747.05
2019-05-16T15:52:17.666Z,101737.22
2019-05-16T15:54:49.566Z,101745.10
2019-05-16T15:57:18.992Z,101739.77
2019-05-16T15:59:48.389Z,101736.36
2019-05-16T16:02:17.970Z,101740.22
2019-05-16T16:04:47.862Z,101738.30
2019-05-16T16:07:18.041Z,101733.08
2019-05-16T16:09:47.745Z,101728.03
2019-05-16T16:12:20.161Z,101734.47
2019-05-16T16:14:49.523Z,101728.81
2019-05-16T16:17:18.952Z,101734.02
2019-05-16T16:19:51.227Z,101735.22
2019-05-16T16:22:20.658Z,101728.38
2019-05-16T16:24:50.082Z,101734.16
2019-05-16T16:27:19.842Z,101728.65
2019-05-16T16:29:49.871Z,101737.80
2019-05-16T16:32:19.635Z,101737.73
2019-05-16T16:34:49.201Z,101719.56
2019-05-16T16:37:20.453Z,101721.61
2019-05-16T16:39:49.881Z,101725.90
2019-05-16T16:42:19.278Z,101732.74
2019-05-16T16:44:48.631Z,101717.61
2019-05-16T16:47:18.342Z,101723.02
2019-05-16T16:49:47.741Z,101722.55
2019-05-16T16:52:18.440Z,101724.01
2019-05-16T16:54:47.883Z,101719.05
2019-05-16T16:57:17.815Z,101723.46
2019-05-16T16:59:47.763Z,101720.69
2019-05-16T17:02:17.331Z,101729.75
2019-05-16T17:04:50.869Z,101719.34
2019-05-16T17:07:17.850Z,101718.46
2019-05-16T17:09:47.280Z,101720.80
2019-05-16T17:12:16.785Z,101724.80
2019-05-16T17:14:46.547Z,101722.27
2019-05-16T17:17:17.590Z,101713.05
2019-05-16T17:19:47.595Z,101720.56
2019-05-16T17:22:20.229Z,101704.98
2019-05-16T17:24:48.116Z,101713.51
2019-05-16T17:27:19.053Z,101716.78
2019-05-16T17:29:49.158Z,101715.16
2019-05-16T17:32:18.581Z,101713.51
2019-05-16T17:34:47.972Z,101715.26
2019-05-16T17:37:17.362Z,101712.23
2019-05-16T17:39:47.558Z,101711.87
2019-05-16T17:42:17.105Z,101709.61
2019-05-16T17:44:49.573Z,101718.34
2019-05-16T17:47:18.983Z,101716.19
2019-05-16T17:49:48.399Z,101719.80
2019-05-16T17:52:17.785Z,101703.93
2019-05-16T17:54:47.648Z,101730.91
2019-05-16T17:57:17.204Z,101722.43
2019-05-16T17:59:49.578Z,101728.02
2019-05-16T18:02:19.001Z,101737.56
2019-05-16T18:04:48.407Z,101737.77
2019-05-16T18:07:17.811Z,101732.54
2019-05-16T18:09:50.136Z,101734.57
2019-05-16T18:12:19.493Z,101741.92
2019-05-16T18:14:50.495Z,101746.95
2019-05-16T18:17:19.936Z,101745.87
2019-05-16T18:19:49.302Z,101743.55
2019-05-16T18:22:18.715Z,101744.90
2019-05-16T18:24:48.215Z,101748.36
2019-05-16T18:27:18.014Z,101751.37
2019-05-16T18:29:48.375Z,101755.14
2019-05-16T18:32:17.834Z,101755.79
2019-05-16T18:34:47.238Z,101756.31
2019-05-16T18:37:17.845Z,101754.31
2019-05-16T18:39:47.587Z,101758.58
2019-05-16T18:42:16.970Z,101771.41
2019-05-16T18:44:47.187Z,101763.34
2019-05-16T18:47:16.955Z,101759.23
2019-05-16T18:49:47.358Z,101764.37
2019-05-16T18:52:17.335Z,101759.64
2019-05-16T18:54:47.167Z,101759.60
2019-05-16T18:57:20.314Z,101767.41
2019-05-16T18:59:53.118Z,101762.13
2019-05-16T19:02:22.675Z,101761.23
2019-05-16T19:04:53.206Z,101766.81
2019-05-16T19:07:22.700Z,101766.84
2019-05-16T19:09:52.087Z,101768.80
2019-05-16T19:12:21.446Z,101768.83
2019-05-16T19:14:51.028Z,101772.44
2019-05-16T19:17:24.772Z,101772.32
2019-05-16T19:19:52.346Z,101774.16
2019-05-16T19:22:21.853Z,101771.63
2019-05-16T19:24:51.255Z,101776.19
2019-05-16T19:27:21.068Z,101776.50
2019-05-16T19:29:51.044Z,101781.36
2019-05-16T19:32:20.453Z,101782.19
2019-05-16T19:34:49.841Z,101782.97
2019-05-16T19:37:19.257Z,101778.22
2019-05-16T19:39:48.716Z,101778.20
2019-05-16T19:42:18.191Z,101770.94
2019-05-16T19:44:47.713Z,101779.08
2019-05-16T19:47:17.151Z,101768.11
2019-05-16T19:49:46.612Z,101777.41
2019-05-16T19:52:16.466Z,101779.14
2019-05-16T19:54:47.139Z,101771.36
2019-05-16T19:57:17.434Z,101770.74
2019-05-16T19:59:47.387Z,101774.36
2019-05-16T20:02:33.856Z,101772.23
2019-05-16T20:05:03.850Z,101772.15
2019-05-16T20:07:37.179Z,101773.42
2019-05-16T20:10:09.592Z,101776.34
2019-05-16T20:12:39.080Z,101776.75
2019-05-16T20:15:11.883Z,101775.66
2019-05-16T20:17:53.941Z,101771.85
2019-05-16T20:20:13.041Z,101777.80
2019-05-16T20:22:42.423Z,101772.63
2019-05-16T20:25:12.987Z,101774.87
2019-05-16T20:27:42.746Z,101776.91
2019-05-16T20:30:13.102Z,101787.00
2019-05-16T20:32:42.525Z,101782.48
2019-05-16T20:35:17.454Z,101790.55
2019-05-16T20:37:47.385Z,101789.39
2019-05-16T20:40:17.454Z,101796.98
2019-05-16T20:42:47.568Z,101792.31
2019-05-16T20:45:17.655Z,101790.20
2019-05-16T20:47:47.030Z,101786.39
2019-05-16T20:50:17.039Z,101786.39
2019-05-16T20:52:48.686Z,101787.78
2019-05-16T20:55:17.793Z,101787.64
2019-05-16T20:57:48.488Z,101783.48
2019-05-16T21:00:18.810Z,101784.02
2019-05-16T21:02:49.513Z,101782.00
2019-05-16T21:05:20.598Z,101781.35
2019-05-16T21:07:54.160Z,101775.98
2019-05-16T21:10:23.575Z,101783.04
2019-05-16T21:12:53.101Z,101768.98
2019-05-16T21:15:22.698Z,101775.52
2019-05-16T21:17:52.045Z,101778.01
2019-05-16T21:20:21.435Z,101772.50
2019-05-16T21:22:51.008Z,101774.98
2019-05-16T21:25:20.468Z,101778.49
2019-05-16T21:27:49.880Z,101777.27
2019-05-16T21:30:19.526Z,101778.44
2019-05-16T21:32:49.591Z,101776.25
2019-05-16T21:35:19.065Z,101778.10
2019-05-16T21:37:48.465Z,101775.07
2019-05-16T21:40:18.792Z,101769.02
2019-05-16T21:42:48.156Z,101768.52
2019-05-16T21:45:17.669Z,101775.50
2019-05-16T21:47:47.155Z,101763.80
2019-05-16T21:50:19.217Z,101770.30
2019-05-16T21:52:47.995Z,101773.58
2019-05-16T21:55:17.655Z,101775.57
2019-05-16T21:57:47.441Z,101776.20
2019-05-16T22:00:26.487Z,101778.66
2019-05-16T22:02:57.313Z,101767.95
2019-05-16T22:05:26.769Z,101769.71
2019-05-16T22:07:56.861Z,101765.52
2019-05-16T22:10:26.768Z,101762.81
2019-05-16T22:12:57.139Z,101768.12
2019-05-16T22:15:29.264Z,101762.77
2019-05-16T22:18:07.200Z,101764.76
2019-05-16T22:20:37.133Z,101760.22
2019-05-16T22:23:07.206Z,101757.86
2019-05-16T22:25:36.739Z,101753.86
2019-05-16T22:28:07.153Z,101749.31
2019-05-16T22:30:37.625Z,101758.13
2019-05-16T22:33:09.227Z,101755.61
2019-05-16T22:35:38.430Z,101755.42
2019-05-16T22:38:10.077Z,101755.26
2019-05-16T22:40:39.577Z,101752.89
2019-05-16T22:43:10.235Z,101756.05
2019-05-16T22:45:39.921Z,101747.86
2019-05-16T22:48:09.316Z,101744.16
2019-05-16T22:50:38.783Z,101741.83
2019-05-16T22:53:08.299Z,101738.13
2019-05-16T22:55:37.762Z,101738.78
2019-05-16T22:58:07.645Z,101739.92
2019-05-16T23:00:41.073Z,101740.07
2019-05-16T23:03:08.426Z,101737.06
2019-05-16T23:05:37.941Z,101731.04
2019-05-16T23:08:10.169Z,101729.20
2019-05-16T23:10:39.918Z,101720.17
2019-05-16T23:13:09.832Z,101712.29
2019-05-16T23:15:39.281Z,101707.83
2019-05-16T23:18:08.683Z,101708.66
2019-05-16T23:20:38.290Z,101706.00
2019-05-16T23:23:07.852Z,101701.50
2019-05-16T23:25:37.422Z,101695.83
2019-05-16T23:28:07.877Z,101695.11
2019-05-16T23:30:39.549Z,101692.67
2019-05-16T23:33:09.211Z,101686.27
2019-05-16T23:35:38.612Z,101690.92
2019-05-16T23:38:19.377Z,101675.41
2019-05-16T23:40:42.403Z,101677.24
2019-05-16T23:43:11.789Z,101680.94
2019-05-16T23:45:41.207Z,101682.27
2019-05-16T23:48:11.303Z,101686.56
2019-05-16T23:50:40.988Z,101685.04
2019-05-16T23:53:12.279Z,101692.69
2019-05-16T23:55:41.696Z,101692.16
2019-05-16T23:58:11.057Z,101694.13
